Flight Track Log - Related Links

Times and Time Zones

All times are in EST time to prevent confusion due to time zone crossing. See the AMF3324 flight status page for this flight to view local times or setup timezone preferences in your user account.

Time Position Orientation Groundspeed Altitude Reporting Facility
EST Latitude Longitude Course Direction KTS MPH feet Rate Location/Type
Fri 11:06:27 AM 42.2328 -76.1394 286° West 142 163 7,500  Level Cleveland Center
Fri 11:07:28 AM 42.2442 -76.1922 286° West 152 175 8,100 293 Climbing Cleveland Center
Fri 11:08:30 AM 42.2617 -76.2544 291° West 164 189 8,100 -98 Level Cleveland Center
Fri 11:09:31 AM 42.2797 -76.3147 292° West 171 197 7,900 -49 Descending Cleveland Center
Fri 11:10:32 AM 42.2961 -76.3753 290° West 172 198 8,000 49 Climbing Cleveland Center
Fri 11:11:34 AM 42.3136 -76.4347 292° West 172 198 8,000  Level Cleveland Center
Fri 11:12:35 AM 42.3286 -76.4961 288° West 172 198 8,000 -49 Level Cleveland Center
Fri 11:13:37 AM 42.3458 -76.5683 288° West 170 196 7,900  Descending Cleveland Center
Fri 11:14:38 AM 42.3647 -76.6247 294° West 166 191 8,000 49 Climbing Cleveland Center
Fri 11:15:39 AM 42.3908 -76.6772 304° West 166 191 8,000  Level Cleveland Center
Fri 11:16:40 AM 42.4103 -76.7353 294° West 170 196 8,000 -49 Level Cleveland Center
Fri 11:17:41 AM 42.4333 -76.7900 300° West 168 193 7,900  Descending Cleveland Center
Fri 11:18:43 AM 42.4569 -76.8447 292° West 168 193 8,000  Climbing Cleveland Center
Fri 11:19:44 AM 42.4786 -76.8994 298° West 165 190 7,900 -49 Descending Cleveland Center
Fri 11:20:45 AM 42.5028 -76.9536 301° West 168 193 7,900 148 Level Cleveland Center
Fri 11:21:05 AM 42.5142 -76.9811 299° West 167 192 8,100 98 Climbing Cleveland Center
Fri 11:21:46 AM 42.5253 -77.0086 299° West 167 192 8,000  Descending Cleveland Center
Fri 11:22:06 AM 42.5339 -77.0375 292° West 167 192 8,100 98 Climbing Cleveland Center
Fri 11:22:47 AM 42.5428 -77.0672 292° West 168 193 8,100 90 Level Cleveland Center
Fri 11:23:13 AM 42.5544 -77.1031 294° West 169 194 8,200  Climbing Cleveland Center
Fri 11:23:48 AM 42.5681 -77.1336 301° West 166 191 8,100 -111 Descending Cleveland Center
Fri 11:24:07 AM 42.5756 -77.1514 300° West 168 193 8,100 -98 Level Cleveland Center
Fri 11:24:49 AM 42.5881 -77.1919 293° West 169 194 8,000 -197 Descending Cleveland Center
Fri 11:25:08 AM 42.5922 -77.2131 285° West 172 198 7,900 98 Descending Cleveland Center
Fri 11:25:50 AM 42.6069 -77.2508 298° West 171 197 8,100 200 Climbing Cleveland Center
Fri 11:26:08 AM 42.6119 -77.2697 290° West 168 193 8,100 -97 Level Cleveland Center
Fri 11:26:52 AM 42.6269 -77.3075 298° West 168 193 8,000 -98 Descending Cleveland Center
Fri 11:27:09 AM 42.6317 -77.3264 289° West 168 193 8,000  Level Cleveland Center
Fri 11:27:53 AM 42.6456 -77.3667 295° West 170 196 8,000  Level Cleveland Center
Fri 11:28:10 AM 42.6519 -77.3922 289° West 172 198 8,000  Level Cleveland Center
Fri 11:28:54 AM 42.6606 -77.4275 288° West 170 196 8,000  Level Cleveland Center
Fri 11:29:10 AM 42.6667 -77.4533 288° West 171 197 8,000  Level Cleveland Center
Fri 11:29:55 AM 42.6756 -77.4917 288° West 171 197 8,000  Level Cleveland Center
Fri 11:30:05 AM 42.6783 -77.5053 286° West 170 196 8,000  Level Cleveland Center
Fri 11:30:56 AM 42.6978 -77.5428 305° West 169 194 8,000  Level Cleveland Center
Fri 11:31:05 AM 42.7042 -77.5639 292° West 162 186 8,000  Level Cleveland Center
Fri 11:31:57 AM 42.7183 -77.5983 299° West 167 192 8,000  Level Cleveland Center
Fri 11:32:06 AM 42.7261 -77.6186 298° West 166 191 8,000  Level Cleveland Center
Fri 11:32:58 AM 42.7453 -77.6633 300° West 167 192 8,000 -90 Level Cleveland Center
Fri 11:33:13 AM 42.7517 -77.6772 302° West 171 197 7,900  Descending Cleveland Center
Fri 11:33:59 AM 42.7667 -77.7206 295° West 170 196 8,000 182 Climbing Cleveland Center
Fri 11:34:19 AM 42.7758 -77.7442 298° West 166 191 8,100  Climbing Cleveland Center
Fri 11:35:00 AM 42.7878 -77.7761 297° West 169 194 8,000 -59 Descending Cleveland Center
Fri 11:36:01 AM 42.7989 -77.8461 282° West 178 205 8,000 -246 Level Cleveland Center
Fri 11:37:02 AM 42.8125 -77.9131 286° West 177 204 7,500 -492 Descending Cleveland Center
Fri 11:38:03 AM 42.8264 -77.9783 286° West 185 213 7,000 -590 Descending Cleveland Center
Fri 11:39:04 AM 42.8417 -78.0458 287° West 180 207 6,300 -689 Descending Cleveland Center
Fri 11:40:05 AM 42.8578 -78.1139 288° West 184 212 5,600 -689 Descending Cleveland Center
Fri 11:41:06 AM 42.8778 -78.1769 293° West 188 216 4,900 -639 Descending Cleveland Center
Fri 11:42:07 AM 42.8961 -78.2458 290° West 186 214 4,300 -443 Descending Cleveland Center
Fri 11:43:08 AM 42.9144 -78.3039 293° West 175 201 4,000 -148 Descending Cleveland Center
Fri 11:44:09 AM 42.9350 -78.3653 295° West 171 197 4,000  Level Cleveland Center
Fri 11:45:10 AM 42.9519 -78.4281 290° West 170 196 4,000 -98 Level Cleveland Center
Fri 11:46:11 AM 42.9681 -78.4883 290° West 175 201 3,800 -590 Descending Cleveland Center
Fri 11:47:12 AM 42.9894 -78.5503 295° West 172 198 2,800 -590 Descending Cleveland Center
Fri 11:48:13 AM 43.0089 -78.6014 297° West 149 171 2,600 -295 Descending Cleveland Center
Fri 11:49:14 AM 43.0011 -78.6433 256° West 127 146 2,200 -295 Descending Cleveland Center
Fri 11:50:15 AM 42.9847 -78.6753 235° Southwest 124 143 2,000 -557 Descending Cleveland Center
Fri 11:51:34 AM 42.9500 -78.7167 221° Southwest 106 122 900 -835 Descending Buffalo TRACON
Fri 11:53:00 AM 42.9333 -78.7167 289° West  Level FlightAware Approximate

Login

Don't have an account? Register now (free) for customized features, flight alerts, and more!